Jolo, Philippines
Current Conditions -  °F | °C
As of 8:00 PM on Thursday 30 Oct 2014 (Local Time) from RPMZ Reporting Station
Broken Clouds Broken Clouds  
Wind Chill: 79°   Ceiling: 10000
Heat Index: 83°   Visibility: 6mi
Dew Point: 77°   Wind: 2mph
Humidity: 94%   Direction: 40°NE
Pressure: 29.85"   Gusts: NA
Location:  6.05°N, 120.99°E
Report Text: RPMZ 301200Z 04002KT 9999 FEW018 BKN100 26/25 Q1011 RMK A2986
Loading
Personal Weather Stations






























Interactive Weather Map
Tropical Storm Tracking
New forecast layout! Learn more

10-Day Weather Forecast

Advertisements
Track Severe Weather on mobile